sensor_id;sensor_type;location;lat;lon;timestamp;temperature;humidity
45137;DHT22;30894;51.740;19.498;2023-02-03T00:04:28;1.50;99.90
45137;DHT22;30894;51.740;19.498;2023-02-03T00:06:55;1.40;99.90
45137;DHT22;30894;51.740;19.498;2023-02-03T00:09:21;1.40;99.90
45137;DHT22;30894;51.740;19.498;2023-02-03T00:11:47;1.40;99.90
45137;DHT22;30894;51.740;19.498;2023-02-03T00:14:14;1.40;99.90
45137;DHT22;30894;51.740;19.498;2023-02-03T00:16:40;1.40;99.90
45137;DHT22;30894;51.740;19.498;2023-02-03T00:19:06;1.40;99.90
45137;DHT22;30894;51.740;19.498;2023-02-03T00:21:33;1.40;99.90
45137;DHT22;30894;51.740;19.498;2023-02-03T00:23:59;1.40;99.90
45137;DHT22;30894;51.740;19.498;2023-02-03T00:26:25;1.40;99.90
45137;DHT22;30894;51.740;19.498;2023-02-03T00:28:53;1.30;99.90
45137;DHT22;30894;51.740;19.498;2023-02-03T00:31:21;1.30;99.90
45137;DHT22;30894;51.740;19.498;2023-02-03T00:33:57;1.30;99.90
45137;DHT22;30894;51.740;19.498;2023-02-03T00:36:25;1.30;99.90
45137;DHT22;30894;51.740;19.498;2023-02-03T00:38:52;1.20;99.90
45137;DHT22;30894;51.740;19.498;2023-02-03T00:41:19;1.20;99.90
45137;DHT22;30894;51.740;19.498;2023-02-03T00:43:47;1.20;99.90
45137;DHT22;30894;51.740;19.498;2023-02-03T00:46:14;1.20;99.90
45137;DHT22;30894;51.740;19.498;2023-02-03T00:48:40;1.20;99.90
45137;DHT22;30894;51.740;19.498;2023-02-03T00:51:07;1.10;99.90
45137;DHT22;30894;51.740;19.498;2023-02-03T00:53:33;1.10;99.90
45137;DHT22;30894;51.740;19.498;2023-02-03T00:55:59;1.00;99.90
45137;DHT22;30894;51.740;19.498;2023-02-03T00:58:25;1.00;99.90
45137;DHT22;30894;51.740;19.498;2023-02-03T01:00:53;0.90;99.90
45137;DHT22;30894;51.740;19.498;2023-02-03T01:03:21;0.90;99.90
45137;DHT22;30894;51.740;19.498;2023-02-03T01:05:51;0.80;99.90
45137;DHT22;30894;51.740;19.498;2023-02-03T01:08:17;0.80;99.90
45137;DHT22;30894;51.740;19.498;2023-02-03T01:10:44;0.80;99.90
45137;DHT22;30894;51.740;19.498;2023-02-03T01:13:10;0.70;99.90
45137;DHT22;30894;51.740;19.498;2023-02-03T01:15:36;0.60;99.90
45137;DHT22;30894;51.740;19.498;2023-02-03T01:18:02;0.70;99.90
45137;DHT22;30894;51.740;19.498;2023-02-03T01:20:29;0.60;99.90
45137;DHT22;30894;51.740;19.498;2023-02-03T01:22:55;0.60;99.90
45137;DHT22;30894;51.740;19.498;2023-02-03T01:25:21;0.60;99.90
45137;DHT22;30894;51.740;19.498;2023-02-03T01:27:47;0.50;99.90
45137;DHT22;30894;51.740;19.498;2023-02-03T01:30:14;0.50;99.90
45137;DHT22;30894;51.740;19.498;2023-02-03T01:32:40;0.50;99.90
45137;DHT22;30894;51.740;19.498;2023-02-03T01:35:06;0.50;99.90
45137;DHT22;30894;51.740;19.498;2023-02-03T01:37:32;0.50;99.90
45137;DHT22;30894;51.740;19.498;2023-02-03T01:39:59;0.50;99.90
45137;DHT22;30894;51.740;19.498;2023-02-03T01:42:25;0.50;99.90
45137;DHT22;30894;51.740;19.498;2023-02-03T01:44:51;0.50;99.90
45137;DHT22;30894;51.740;19.498;2023-02-03T01:47:28;0.50;99.90
45137;DHT22;30894;51.740;19.498;2023-02-03T01:52:46;0.40;99.90
45137;DHT22;30894;51.740;19.498;2023-02-03T01:55:32;0.40;99.90
45137;DHT22;30894;51.740;19.498;2023-02-03T01:58:07;0.30;99.90
45137;DHT22;30894;51.740;19.498;2023-02-03T02:00:39;0.30;99.90
45137;DHT22;30894;51.740;19.498;2023-02-03T02:03:07;0.30;99.90
45137;DHT22;30894;51.740;19.498;2023-02-03T02:05:45;0.20;99.90
45137;DHT22;30894;51.740;19.498;2023-02-03T02:08:14;0.20;99.90
45137;DHT22;30894;51.740;19.498;2023-02-03T02:10:43;0.20;99.90
45137;DHT22;30894;51.740;19.498;2023-02-03T02:13:10;0.20;99.90
45137;DHT22;30894;51.740;19.498;2023-02-03T02:15:57;0.20;99.90
45137;DHT22;30894;51.740;19.498;2023-02-03T02:33:40;0.20;99.90
45137;DHT22;30894;51.740;19.498;2023-02-03T02:36:29;0.20;99.90
45137;DHT22;30894;51.740;19.498;2023-02-03T02:39:12;0.10;99.90
45137;DHT22;30894;51.740;19.498;2023-02-03T02:45:11;0.00;99.90
45137;DHT22;30894;51.740;19.498;2023-02-03T02:47:40;0.00;99.90
45137;DHT22;30894;51.740;19.498;2023-02-03T02:50:22;0.00;99.90
45137;DHT22;30894;51.740;19.498;2023-02-03T02:52:50;0.00;99.90
45137;DHT22;30894;51.740;19.498;2023-02-03T02:55:29;-0.10;99.90
45137;DHT22;30894;51.740;19.498;2023-02-03T02:58:01;-0.10;99.90
45137;DHT22;30894;51.740;19.498;2023-02-03T03:00:31;-0.10;99.90
45137;DHT22;30894;51.740;19.498;2023-02-03T03:03:19;-0.10;99.90
45137;DHT22;30894;51.740;19.498;2023-02-03T03:06:02;-0.10;99.90
45137;DHT22;30894;51.740;19.498;2023-02-03T03:11:09;0.00;99.90
45137;DHT22;30894;51.740;19.498;2023-02-03T03:13:39;0.00;99.90
45137;DHT22;30894;51.740;19.498;2023-02-03T03:16:09;0.00;99.90
45137;DHT22;30894;51.740;19.498;2023-02-03T03:18:45;0.00;99.90
45137;DHT22;30894;51.740;19.498;2023-02-03T03:21:19;0.00;99.90
45137;DHT22;30894;51.740;19.498;2023-02-03T03:23:50;0.00;99.90
45137;DHT22;30894;51.740;19.498;2023-02-03T03:29:23;0.00;99.90
45137;DHT22;30894;51.740;19.498;2023-02-03T03:31:52;0.00;99.90
45137;DHT22;30894;51.740;19.498;2023-02-03T03:34:18;-0.10;99.90
45137;DHT22;30894;51.740;19.498;2023-02-03T03:37:02;-0.10;99.90
45137;DHT22;30894;51.740;19.498;2023-02-03T03:39:59;-0.20;99.90
45137;DHT22;30894;51.740;19.498;2023-02-03T03:42:50;-0.20;99.90
45137;DHT22;30894;51.740;19.498;2023-02-03T03:45:26;-0.30;99.90
45137;DHT22;30894;51.740;19.498;2023-02-03T03:48:03;-0.30;99.90
45137;DHT22;30894;51.740;19.498;2023-02-03T03:50:36;-0.30;99.90
45137;DHT22;30894;51.740;19.498;2023-02-03T03:53:06;-0.30;99.90
45137;DHT22;30894;51.740;19.498;2023-02-03T03:55:35;-0.30;99.90
45137;DHT22;30894;51.740;19.498;2023-02-03T03:58:11;-0.30;99.90
45137;DHT22;30894;51.740;19.498;2023-02-03T04:00:40;-0.30;99.90
45137;DHT22;30894;51.740;19.498;2023-02-03T04:03:22;-0.40;99.90
45137;DHT22;30894;51.740;19.498;2023-02-03T04:05:50;-0.40;99.90
45137;DHT22;30894;51.740;19.498;2023-02-03T04:08:16;-0.40;99.90
45137;DHT22;30894;51.740;19.498;2023-02-03T04:10:42;-0.30;99.90
45137;DHT22;30894;51.740;19.498;2023-02-03T04:13:10;-0.40;99.90
45137;DHT22;30894;51.740;19.498;2023-02-03T04:15:37;-0.40;99.90
45137;DHT22;30894;51.740;19.498;2023-02-03T04:18:04;-0.40;99.90
45137;DHT22;30894;51.740;19.498;2023-02-03T04:20:31;-0.30;99.90
45137;DHT22;30894;51.740;19.498;2023-02-03T04:22:58;-0.40;99.90
45137;DHT22;30894;51.740;19.498;2023-02-03T04:25:24;-0.30;99.90
45137;DHT22;30894;51.740;19.498;2023-02-03T04:27:51;-0.40;99.90
45137;DHT22;30894;51.740;19.498;2023-02-03T04:30:17;-0.40;99.90
45137;DHT22;30894;51.740;19.498;2023-02-03T04:32:44;-0.40;99.90
45137;DHT22;30894;51.740;19.498;2023-02-03T04:35:12;-0.40;99.90
45137;DHT22;30894;51.740;19.498;2023-02-03T04:37:39;-0.40;99.90
45137;DHT22;30894;51.740;19.498;2023-02-03T04:40:06;-0.40;99.90
45137;DHT22;30894;51.740;19.498;2023-02-03T04:42:39;-0.40;99.90
45137;DHT22;30894;51.740;19.498;2023-02-03T04:45:07;-0.40;99.90
45137;DHT22;30894;51.740;19.498;2023-02-03T04:47:35;-0.40;99.90
45137;DHT22;30894;51.740;19.498;2023-02-03T04:50:01;-0.50;99.90
45137;DHT22;30894;51.740;19.498;2023-02-03T04:52:28;-0.50;99.90
45137;DHT22;30894;51.740;19.498;2023-02-03T04:54:54;-0.50;99.90
45137;DHT22;30894;51.740;19.498;2023-02-03T04:57:21;-0.40;99.90
45137;DHT22;30894;51.740;19.498;2023-02-03T04:59:47;-0.50;99.90
45137;DHT22;30894;51.740;19.498;2023-02-03T05:02:13;-0.40;99.90
45137;DHT22;30894;51.740;19.498;2023-02-03T05:04:39;-0.50;99.90
45137;DHT22;30894;51.740;19.498;2023-02-03T05:07:05;-0.50;99.90
45137;DHT22;30894;51.740;19.498;2023-02-03T05:09:31;-0.40;99.90
45137;DHT22;30894;51.740;19.498;2023-02-03T05:11:58;-0.50;99.90
45137;DHT22;30894;51.740;19.498;2023-02-03T05:14:24;-0.50;99.90
45137;DHT22;30894;51.740;19.498;2023-02-03T05:16:50;-0.50;99.90
45137;DHT22;30894;51.740;19.498;2023-02-03T05:19:16;-0.40;99.90
45137;DHT22;30894;51.740;19.498;2023-02-03T05:21:43;-0.50;99.90
45137;DHT22;30894;51.740;19.498;2023-02-03T05:24:10;-0.50;99.90
45137;DHT22;30894;51.740;19.498;2023-02-03T05:26:36;-0.50;99.90
45137;DHT22;30894;51.740;19.498;2023-02-03T05:29:03;-0.50;99.90
45137;DHT22;30894;51.740;19.498;2023-02-03T05:31:29;-0.40;99.90
45137;DHT22;30894;51.740;19.498;2023-02-03T05:33:55;-0.50;99.90
45137;DHT22;30894;51.740;19.498;2023-02-03T05:36:21;-0.50;99.90
45137;DHT22;30894;51.740;19.498;2023-02-03T05:38:47;-0.50;99.90
45137;DHT22;30894;51.740;19.498;2023-02-03T05:41:13;-0.50;99.90
45137;DHT22;30894;51.740;19.498;2023-02-03T05:43:59;-0.50;99.90
45137;DHT22;30894;51.740;19.498;2023-02-03T05:46:25;-0.50;99.90
45137;DHT22;30894;51.740;19.498;2023-02-03T05:48:54;-0.50;99.90
45137;DHT22;30894;51.740;19.498;2023-02-03T05:51:21;-0.40;99.90
45137;DHT22;30894;51.740;19.498;2023-02-03T05:53:48;-0.40;99.90
45137;DHT22;30894;51.740;19.498;2023-02-03T05:56:14;-0.50;99.90
45137;DHT22;30894;51.740;19.498;2023-02-03T05:58:40;-0.50;99.90
45137;DHT22;30894;51.740;19.498;2023-02-03T06:01:06;-0.50;99.90
45137;DHT22;30894;51.740;19.498;2023-02-03T06:03:32;-0.50;99.90
45137;DHT22;30894;51.740;19.498;2023-02-03T06:05:58;-0.50;99.90
45137;DHT22;30894;51.740;19.498;2023-02-03T06:08:25;-0.50;99.90
45137;DHT22;30894;51.740;19.498;2023-02-03T06:10:57;-0.60;99.90
45137;DHT22;30894;51.740;19.498;2023-02-03T06:13:24;-0.50;99.90
45137;DHT22;30894;51.740;19.498;2023-02-03T06:15:51;-0.60;99.90
45137;DHT22;30894;51.740;19.498;2023-02-03T06:18:17;-0.60;99.90
45137;DHT22;30894;51.740;19.498;2023-02-03T06:20:43;-0.60;99.90
45137;DHT22;30894;51.740;19.498;2023-02-03T06:23:09;-0.60;99.90
45137;DHT22;30894;51.740;19.498;2023-02-03T06:25:35;-0.60;99.90
45137;DHT22;30894;51.740;19.498;2023-02-03T06:28:02;-0.50;99.90
45137;DHT22;30894;51.740;19.498;2023-02-03T06:30:28;-0.50;99.90
45137;DHT22;30894;51.740;19.498;2023-02-03T06:32:54;-0.50;99.90
45137;DHT22;30894;51.740;19.498;2023-02-03T06:35:20;-0.50;99.90
45137;DHT22;30894;51.740;19.498;2023-02-03T06:37:47;-0.50;99.90
45137;DHT22;30894;51.740;19.498;2023-02-03T06:40:13;-0.50;99.90
45137;DHT22;30894;51.740;19.498;2023-02-03T06:42:39;-0.50;99.90
45137;DHT22;30894;51.740;19.498;2023-02-03T06:45:05;-0.40;99.90
45137;DHT22;30894;51.740;19.498;2023-02-03T06:47:33;-0.40;99.90
45137;DHT22;30894;51.740;19.498;2023-02-03T06:49:59;-0.40;99.90
45137;DHT22;30894;51.740;19.498;2023-02-03T06:52:26;-0.40;99.90
45137;DHT22;30894;51.740;19.498;2023-02-03T06:54:52;-0.40;99.90
45137;DHT22;30894;51.740;19.498;2023-02-03T06:57:18;-0.40;99.90
45137;DHT22;30894;51.740;19.498;2023-02-03T06:59:44;-0.30;99.90
45137;DHT22;30894;51.740;19.498;2023-02-03T07:02:10;-0.30;99.90
45137;DHT22;30894;51.740;19.498;2023-02-03T07:04:57;-0.30;99.90
45137;DHT22;30894;51.740;19.498;2023-02-03T07:07:34;-0.20;99.90
45137;DHT22;30894;51.740;19.498;2023-02-03T07:10:05;-0.20;99.90
45137;DHT22;30894;51.740;19.498;2023-02-03T07:12:35;-0.20;99.90
45137;DHT22;30894;51.740;19.498;2023-02-03T07:15:03;-0.20;99.90
45137;DHT22;30894;51.740;19.498;2023-02-03T07:17:30;-0.20;99.90
45137;DHT22;30894;51.740;19.498;2023-02-03T07:19:56;-0.10;99.90
45137;DHT22;30894;51.740;19.498;2023-02-03T07:22:23;-0.10;99.90
45137;DHT22;30894;51.740;19.498;2023-02-03T07:24:49;-0.10;99.90
45137;DHT22;30894;51.740;19.498;2023-02-03T07:27:15;0.00;99.90
45137;DHT22;30894;51.740;19.498;2023-02-03T07:29:41;0.00;99.90
45137;DHT22;30894;51.740;19.498;2023-02-03T07:32:11;0.10;99.90
45137;DHT22;30894;51.740;19.498;2023-02-03T07:34:40;0.20;99.90
45137;DHT22;30894;51.740;19.498;2023-02-03T07:37:07;0.20;99.90
45137;DHT22;30894;51.740;19.498;2023-02-03T07:39:33;0.30;99.90
45137;DHT22;30894;51.740;19.498;2023-02-03T07:42:00;0.30;99.90
45137;DHT22;30894;51.740;19.498;2023-02-03T07:44:29;0.30;99.90
45137;DHT22;30894;51.740;19.498;2023-02-03T07:46:56;0.30;99.90
45137;DHT22;30894;51.740;19.498;2023-02-03T07:49:22;0.30;99.90
45137;DHT22;30894;51.740;19.498;2023-02-03T07:51:49;0.30;99.90
45137;DHT22;30894;51.740;19.498;2023-02-03T07:54:15;0.30;99.90
45137;DHT22;30894;51.740;19.498;2023-02-03T07:56:42;0.30;99.90
45137;DHT22;30894;51.740;19.498;2023-02-03T07:59:08;0.40;99.90
45137;DHT22;30894;51.740;19.498;2023-02-03T08:01:34;0.40;99.90
45137;DHT22;30894;51.740;19.498;2023-02-03T08:04:00;0.40;99.90
45137;DHT22;30894;51.740;19.498;2023-02-03T08:06:30;0.50;99.90
45137;DHT22;30894;51.740;19.498;2023-02-03T08:08:57;0.60;99.90
45137;DHT22;30894;51.740;19.498;2023-02-03T08:11:23;0.70;99.90
45137;DHT22;30894;51.740;19.498;2023-02-03T08:13:49;0.60;99.90
45137;DHT22;30894;51.740;19.498;2023-02-03T08:16:16;0.70;99.90
45137;DHT22;30894;51.740;19.498;2023-02-03T08:18:42;0.70;99.90
45137;DHT22;30894;51.740;19.498;2023-02-03T08:21:08;0.70;99.90
45137;DHT22;30894;51.740;19.498;2023-02-03T08:23:34;0.80;99.90
45137;DHT22;30894;51.740;19.498;2023-02-03T08:26:01;0.80;99.90
45137;DHT22;30894;51.740;19.498;2023-02-03T08:28:27;0.80;99.90
45137;DHT22;30894;51.740;19.498;2023-02-03T08:30:54;0.80;99.90
45137;DHT22;30894;51.740;19.498;2023-02-03T08:33:22;0.90;99.90
45137;DHT22;30894;51.740;19.498;2023-02-03T08:35:49;0.90;99.90
45137;DHT22;30894;51.740;19.498;2023-02-03T08:38:15;0.90;99.90
45137;DHT22;30894;51.740;19.498;2023-02-03T08:40:42;0.90;99.90
45137;DHT22;30894;51.740;19.498;2023-02-03T08:43:08;1.00;99.90
45137;DHT22;30894;51.740;19.498;2023-02-03T08:45:34;1.00;99.90
45137;DHT22;30894;51.740;19.498;2023-02-03T08:48:01;1.00;99.90
45137;DHT22;30894;51.740;19.498;2023-02-03T08:50:27;1.10;99.90
45137;DHT22;30894;51.740;19.498;2023-02-03T08:52:53;1.20;99.90
45137;DHT22;30894;51.740;19.498;2023-02-03T08:55:20;1.20;99.90
45137;DHT22;30894;51.740;19.498;2023-02-03T08:57:46;1.30;99.90
45137;DHT22;30894;51.740;19.498;2023-02-03T09:00:13;1.30;99.90
45137;DHT22;30894;51.740;19.498;2023-02-03T09:02:39;1.30;99.90
45137;DHT22;30894;51.740;19.498;2023-02-03T09:05:06;1.40;99.90
45137;DHT22;30894;51.740;19.498;2023-02-03T09:07:33;1.40;99.90
45137;DHT22;30894;51.740;19.498;2023-02-03T09:09:59;1.40;99.90
45137;DHT22;30894;51.740;19.498;2023-02-03T09:12:28;1.50;99.90
45137;DHT22;30894;51.740;19.498;2023-02-03T09:14:54;1.50;99.90
45137;DHT22;30894;51.740;19.498;2023-02-03T09:17:21;1.50;99.90
45137;DHT22;30894;51.740;19.498;2023-02-03T09:19:48;1.50;99.90
45137;DHT22;30894;51.740;19.498;2023-02-03T09:22:14;1.60;99.90
45137;DHT22;30894;51.740;19.498;2023-02-03T09:24:41;1.60;99.90
45137;DHT22;30894;51.740;19.498;2023-02-03T09:27:07;1.60;99.90
45137;DHT22;30894;51.740;19.498;2023-02-03T09:29:34;1.60;99.90
45137;DHT22;30894;51.740;19.498;2023-02-03T09:32:00;1.70;99.90
45137;DHT22;30894;51.740;19.498;2023-02-03T09:34:32;1.70;99.90
45137;DHT22;30894;51.740;19.498;2023-02-03T09:36:58;1.80;99.90
45137;DHT22;30894;51.740;19.498;2023-02-03T09:39:24;1.80;99.90
45137;DHT22;30894;51.740;19.498;2023-02-03T09:47:49;1.90;99.90
45137;DHT22;30894;51.740;19.498;2023-02-03T09:50:24;1.90;99.90
45137;DHT22;30894;51.740;19.498;2023-02-03T09:52:53;1.90;99.90
45137;DHT22;30894;51.740;19.498;2023-02-03T09:55:38;1.90;99.90
45137;DHT22;30894;51.740;19.498;2023-02-03T09:58:12;1.90;99.90
45137;DHT22;30894;51.740;19.498;2023-02-03T10:00:53;1.90;99.90
45137;DHT22;30894;51.740;19.498;2023-02-03T10:03:41;1.90;99.90
45137;DHT22;30894;51.740;19.498;2023-02-03T10:06:31;1.90;99.90
45137;DHT22;30894;51.740;19.498;2023-02-03T10:18:05;1.80;99.90
45137;DHT22;30894;51.740;19.498;2023-02-03T10:20:42;1.80;99.90
45137;DHT22;30894;51.740;19.498;2023-02-03T10:23:16;1.70;99.90
45137;DHT22;30894;51.740;19.498;2023-02-03T10:25:52;1.70;99.90
45137;DHT22;30894;51.740;19.498;2023-02-03T10:28:22;1.60;99.90
45137;DHT22;30894;51.740;19.498;2023-02-03T10:31:05;1.60;99.90
45137;DHT22;30894;51.740;19.498;2023-02-03T10:33:38;1.60;99.90
45137;DHT22;30894;51.740;19.498;2023-02-03T10:36:17;1.60;99.90
45137;DHT22;30894;51.740;19.498;2023-02-03T10:39:05;1.60;99.90
45137;DHT22;30894;51.740;19.498;2023-02-03T10:41:35;1.60;99.90
45137;DHT22;30894;51.740;19.498;2023-02-03T10:44:04;1.60;99.90
45137;DHT22;30894;51.740;19.498;2023-02-03T10:46:34;1.60;99.90
45137;DHT22;30894;51.740;19.498;2023-02-03T10:49:02;1.50;99.90
45137;DHT22;30894;51.740;19.498;2023-02-03T10:51:46;1.50;99.90
45137;DHT22;30894;51.740;19.498;2023-02-03T10:57:20;1.60;99.90
45137;DHT22;30894;51.740;19.498;2023-02-03T10:59:47;1.50;99.90
45137;DHT22;30894;51.740;19.498;2023-02-03T11:02:26;1.50;99.90
45137;DHT22;30894;51.740;19.498;2023-02-03T11:07:42;1.50;99.90
45137;DHT22;30894;51.740;19.498;2023-02-03T11:18:45;1.50;99.90
45137;DHT22;30894;51.740;19.498;2023-02-03T11:21:22;1.50;99.90
45137;DHT22;30894;51.740;19.498;2023-02-03T11:24:07;1.40;99.90
45137;DHT22;30894;51.740;19.498;2023-02-03T11:26:58;1.50;99.90
45137;DHT22;30894;51.740;19.498;2023-02-03T11:29:31;1.50;99.90
45137;DHT22;30894;51.740;19.498;2023-02-03T11:32:05;1.50;99.90
45137;DHT22;30894;51.740;19.498;2023-02-03T11:35:30;1.50;99.90
45137;DHT22;30894;51.740;19.498;2023-02-03T11:37:54;1.60;99.90
45137;DHT22;30894;51.740;19.498;2023-02-03T11:40:30;1.50;99.90
45137;DHT22;30894;51.740;19.498;2023-02-03T11:43:02;1.60;99.90
45137;DHT22;30894;51.740;19.498;2023-02-03T11:46:03;1.60;99.90
45137;DHT22;30894;51.740;19.498;2023-02-03T11:48:36;1.50;99.90
45137;DHT22;30894;51.740;19.498;2023-02-03T12:02:47;1.50;99.90
45137;DHT22;30894;51.740;19.498;2023-02-03T12:05:55;1.50;99.90
45137;DHT22;30894;51.740;19.498;2023-02-03T12:08:31;1.50;99.90
45137;DHT22;30894;51.740;19.498;2023-02-03T12:11:53;1.50;99.90
45137;DHT22;30894;51.740;19.498;2023-02-03T12:14:28;1.50;99.90
45137;DHT22;30894;51.740;19.498;2023-02-03T12:25:56;1.50;99.90
45137;DHT22;30894;51.740;19.498;2023-02-03T12:28:55;1.50;99.90
45137;DHT22;30894;51.740;19.498;2023-02-03T12:31:59;1.50;99.90
45137;DHT22;30894;51.740;19.498;2023-02-03T12:34:42;1.50;99.90
45137;DHT22;30894;51.740;19.498;2023-02-03T12:37:21;1.50;99.90
45137;DHT22;30894;51.740;19.498;2023-02-03T12:39:52;1.50;99.90
45137;DHT22;30894;51.740;19.498;2023-02-03T12:42:36;1.50;99.90
45137;DHT22;30894;51.740;19.498;2023-02-03T12:45:08;1.50;99.90
45137;DHT22;30894;51.740;19.498;2023-02-03T12:47:47;1.50;99.90
45137;DHT22;30894;51.740;19.498;2023-02-03T12:50:27;1.40;99.90
45137;DHT22;30894;51.740;19.498;2023-02-03T12:55:57;1.40;99.90
45137;DHT22;30894;51.740;19.498;2023-02-03T12:58:34;1.40;99.90
45137;DHT22;30894;51.740;19.498;2023-02-03T13:01:13;1.40;99.90
45137;DHT22;30894;51.740;19.498;2023-02-03T13:12:56;1.40;99.90
45137;DHT22;30894;51.740;19.498;2023-02-03T13:15:29;1.40;99.90
45137;DHT22;30894;51.740;19.498;2023-02-03T13:20:40;1.50;99.90
45137;DHT22;30894;51.740;19.498;2023-02-03T13:23:12;1.50;99.90
45137;DHT22;30894;51.740;19.498;2023-02-03T13:35:14;1.40;99.90
45137;DHT22;30894;51.740;19.498;2023-02-03T13:41:01;1.40;99.90
45137;DHT22;30894;51.740;19.498;2023-02-03T13:43:35;1.40;99.90
45137;DHT22;30894;51.740;19.498;2023-02-03T13:46:06;1.40;99.90
45137;DHT22;30894;51.740;19.498;2023-02-03T13:48:34;1.40;99.90
45137;DHT22;30894;51.740;19.498;2023-02-03T13:51:14;1.50;99.90
45137;DHT22;30894;51.740;19.498;2023-02-03T13:53:44;1.50;99.90
45137;DHT22;30894;51.740;19.498;2023-02-03T13:56:22;1.50;99.90
45137;DHT22;30894;51.740;19.498;2023-02-03T13:59:02;1.50;99.90
45137;DHT22;30894;51.740;19.498;2023-02-03T14:01:37;1.50;99.90
45137;DHT22;30894;51.740;19.498;2023-02-03T14:06:55;1.50;99.90
45137;DHT22;30894;51.740;19.498;2023-02-03T14:12:31;1.50;99.90
45137;DHT22;30894;51.740;19.498;2023-02-03T14:15:43;1.50;99.90
45137;DHT22;30894;51.740;19.498;2023-02-03T14:23:16;1.40;99.90
45137;DHT22;30894;51.740;19.498;2023-02-03T14:25:57;1.40;99.90
45137;DHT22;30894;51.740;19.498;2023-02-03T14:28:45;1.40;99.90
45137;DHT22;30894;51.740;19.498;2023-02-03T14:31:22;1.40;99.90
45137;DHT22;30894;51.740;19.498;2023-02-03T14:34:04;1.40;99.90
45137;DHT22;30894;51.740;19.498;2023-02-03T14:36:38;1.40;99.90
45137;DHT22;30894;51.740;19.498;2023-02-03T14:45:23;1.40;99.90
45137;DHT22;30894;51.740;19.498;2023-02-03T14:51:06;1.40;99.90
45137;DHT22;30894;51.740;19.498;2023-02-03T14:54:06;1.40;99.90
45137;DHT22;30894;51.740;19.498;2023-02-03T15:00:25;1.40;99.90
45137;DHT22;30894;51.740;19.498;2023-02-03T15:05:50;1.40;99.90
45137;DHT22;30894;51.740;19.498;2023-02-03T15:13:54;1.40;99.90
45137;DHT22;30894;51.740;19.498;2023-02-03T15:16:23;1.40;99.90
45137;DHT22;30894;51.740;19.498;2023-02-03T15:19:00;1.40;99.90
45137;DHT22;30894;51.740;19.498;2023-02-03T15:21:40;1.40;99.90
45137;DHT22;30894;51.740;19.498;2023-02-03T15:24:16;1.40;99.90
45137;DHT22;30894;51.740;19.498;2023-02-03T15:26:51;1.40;99.90
45137;DHT22;30894;51.740;19.498;2023-02-03T15:29:28;1.40;99.90
45137;DHT22;30894;51.740;19.498;2023-02-03T15:32:11;1.40;99.90
45137;DHT22;30894;51.740;19.498;2023-02-03T15:34:49;1.50;99.90
45137;DHT22;30894;51.740;19.498;2023-02-03T15:40:21;1.40;99.90
45137;DHT22;30894;51.740;19.498;2023-02-03T15:48:48;1.50;99.90
45137;DHT22;30894;51.740;19.498;2023-02-03T15:56:50;1.50;99.90
45137;DHT22;30894;51.740;19.498;2023-02-03T15:59:37;1.50;99.90
45137;DHT22;30894;51.740;19.498;2023-02-03T16:02:27;1.50;99.90
45137;DHT22;30894;51.740;19.498;2023-02-03T16:04:56;1.50;99.90
45137;DHT22;30894;51.740;19.498;2023-02-03T16:07:32;1.50;99.90
45137;DHT22;30894;51.740;19.498;2023-02-03T16:09:58;1.50;99.90
45137;DHT22;30894;51.740;19.498;2023-02-03T16:12:32;1.50;99.90
45137;DHT22;30894;51.740;19.498;2023-02-03T16:15:00;1.50;99.90
45137;DHT22;30894;51.740;19.498;2023-02-03T16:17:28;1.60;99.90
45137;DHT22;30894;51.740;19.498;2023-02-03T16:22:46;1.60;99.90
45137;DHT22;30894;51.740;19.498;2023-02-03T16:25:28;1.60;99.90
45137;DHT22;30894;51.740;19.498;2023-02-03T16:28:01;1.60;99.90
45137;DHT22;30894;51.740;19.498;2023-02-03T16:30:58;1.60;99.90
45137;DHT22;30894;51.740;19.498;2023-02-03T16:33:46;1.60;99.90
45137;DHT22;30894;51.740;19.498;2023-02-03T16:36:33;1.60;99.90
45137;DHT22;30894;51.740;19.498;2023-02-03T16:39:18;1.60;99.90
45137;DHT22;30894;51.740;19.498;2023-02-03T16:42:18;1.70;99.90
45137;DHT22;30894;51.740;19.498;2023-02-03T16:45:15;1.70;99.90
45137;DHT22;30894;51.740;19.498;2023-02-03T16:48:01;1.70;99.90
45137;DHT22;30894;51.740;19.498;2023-02-03T16:50:49;1.70;99.90
45137;DHT22;30894;51.740;19.498;2023-02-03T16:53:29;1.70;99.90
45137;DHT22;30894;51.740;19.498;2023-02-03T16:56:00;1.70;99.90
45137;DHT22;30894;51.740;19.498;2023-02-03T16:58:29;1.70;99.90
45137;DHT22;30894;51.740;19.498;2023-02-03T17:00:58;1.70;99.90
45137;DHT22;30894;51.740;19.498;2023-02-03T17:03:27;1.80;99.90
45137;DHT22;30894;51.740;19.498;2023-02-03T17:05:56;1.70;99.90
45137;DHT22;30894;51.740;19.498;2023-02-03T17:08:26;1.80;99.90
45137;DHT22;30894;51.740;19.498;2023-02-03T17:10:53;1.80;99.90
45137;DHT22;30894;51.740;19.498;2023-02-03T17:13:21;1.80;99.90
45137;DHT22;30894;51.740;19.498;2023-02-03T17:15:50;1.90;99.90
45137;DHT22;30894;51.740;19.498;2023-02-03T17:18:19;1.90;99.90
45137;DHT22;30894;51.740;19.498;2023-02-03T17:20:49;1.90;99.90
45137;DHT22;30894;51.740;19.498;2023-02-03T17:23:16;1.90;99.90
45137;DHT22;30894;51.740;19.498;2023-02-03T17:25:44;1.90;99.90
45137;DHT22;30894;51.740;19.498;2023-02-03T17:28:12;2.00;99.90
45137;DHT22;30894;51.740;19.498;2023-02-03T17:30:39;2.00;99.90
45137;DHT22;30894;51.740;19.498;2023-02-03T17:33:07;2.00;99.90
45137;DHT22;30894;51.740;19.498;2023-02-03T17:35:42;2.00;99.90
45137;DHT22;30894;51.740;19.498;2023-02-03T17:38:12;2.10;99.90
45137;DHT22;30894;51.740;19.498;2023-02-03T17:40:42;2.10;99.90
45137;DHT22;30894;51.740;19.498;2023-02-03T17:43:09;2.20;99.90
45137;DHT22;30894;51.740;19.498;2023-02-03T17:45:41;2.20;99.90
45137;DHT22;30894;51.740;19.498;2023-02-03T17:48:07;2.30;99.90
45137;DHT22;30894;51.740;19.498;2023-02-03T17:50:34;2.30;99.90
45137;DHT22;30894;51.740;19.498;2023-02-03T17:53:00;2.30;99.90
45137;DHT22;30894;51.740;19.498;2023-02-03T17:55:27;2.50;99.90
45137;DHT22;30894;51.740;19.498;2023-02-03T17:57:53;2.50;99.90
45137;DHT22;30894;51.740;19.498;2023-02-03T18:00:20;2.60;99.90
45137;DHT22;30894;51.740;19.498;2023-02-03T18:02:50;2.60;99.90
45137;DHT22;30894;51.740;19.498;2023-02-03T18:05:18;2.70;99.90
45137;DHT22;30894;51.740;19.498;2023-02-03T18:07:44;2.70;99.90
45137;DHT22;30894;51.740;19.498;2023-02-03T18:10:11;2.70;99.90
45137;DHT22;30894;51.740;19.498;2023-02-03T18:12:37;2.80;99.90
45137;DHT22;30894;51.740;19.498;2023-02-03T18:15:04;2.80;99.90
45137;DHT22;30894;51.740;19.498;2023-02-03T18:17:31;2.80;99.90
45137;DHT22;30894;51.740;19.498;2023-02-03T18:19:57;2.90;99.90
45137;DHT22;30894;51.740;19.498;2023-02-03T18:22:28;2.90;99.90
45137;DHT22;30894;51.740;19.498;2023-02-03T18:24:55;2.90;99.90
45137;DHT22;30894;51.740;19.498;2023-02-03T18:27:21;3.00;99.90
45137;DHT22;30894;51.740;19.498;2023-02-03T18:29:47;3.00;99.90
45137;DHT22;30894;51.740;19.498;2023-02-03T18:32:15;3.10;99.90